Time;durP1;ratioP1;P1;durP2;ratioP2;P2;SDS_P1;SDS_P2;PMS_P1;PMS_P2;Temp;Humidity;BMP_temperature;BMP_pressure;BME280_temperature;BME280_humidity;BME280_pressure;Samples;Min_cycle;Max_cycle;Signal;HPM_P1;HPM_P2
2021/06/02 00:02:05;;;;;;;;;;;;;;;18.98;66.42;100984.94;5005495;28;1985;-46
2021/06/02 00:04:33;;;;;;;;;;;;;;;18.98;66.37;100990.31;5012872;28;1770;-47
2021/06/02 00:07:00;;;;;;;;;;;;;;;19.00;68.22;100992.81;5005557;28;1193;-46
2021/06/02 00:09:27;;;;;;;;;;;;;;;18.99;67.51;100986.63;5004810;28;1824;-46
2021/06/02 00:11:56;;;;;;;;;;;;;;;18.97;66.49;100985.91;5004546;28;1631;-45
2021/06/02 00:14:23;;;;;;;;;;;;;;;18.98;67.38;100978.72;5006178;28;1544;-46
2021/06/02 00:16:50;;;;;;;;;;;;;;;18.96;66.85;100984.22;5010132;28;1575;-47
2021/06/02 00:19:16;;;;;;;;;;;;;;;18.98;67.79;100984.06;5012730;28;1493;-46
2021/06/02 00:21:43;;;;;;;;;;;;;;;18.98;68.11;100990.31;5012662;28;1906;-46
2021/06/02 00:24:09;;;;;;;;;;;;;;;18.96;66.38;100981.53;5012914;28;2258;-46
2021/06/02 00:26:35;;;;;;;;;;;;;;;18.96;66.68;100981.53;4995700;28;1484;-47
2021/06/02 00:29:02;;;;;;;;;;;;;;;18.95;67.49;100990.53;5012531;28;1533;-46
2021/06/02 00:31:29;;;;;;;;;;;;;;;18.97;66.95;100988.59;5008765;28;1606;-46
2021/06/02 00:33:56;;;;;;;;;;;;;;;18.97;66.79;100985.91;5012487;28;1898;-47
2021/06/02 00:36:23;;;;;;;;;;;;;;;18.96;66.33;100986.03;5010764;28;1947;-47
2021/06/02 00:38:50;;;;;;;;;;;;;;;18.98;67.38;100987.63;5010870;28;1632;-46
2021/06/02 00:41:17;;;;;;;;;;;;;;;18.95;66.45;100987.88;5011523;28;1910;-46
2021/06/02 00:43:43;;;;;;;;;;;;;;;18.97;66.15;100993.94;5012144;28;1621;-45
2021/06/02 00:46:10;;;;;;;;;;;;;;;18.98;67.29;100997.47;5012144;28;1656;-47
2021/06/02 00:48:37;;;;;;;;;;;;;;;18.97;67.61;100988.59;5010557;28;1541;-46
2021/06/02 00:51:04;;;;;;;;;;;;;;;18.95;66.32;100992.38;5009167;28;1550;-46
2021/06/02 00:53:30;;;;;;;;;;;;;;;18.97;67.04;101002.00;5012289;28;1652;-46
2021/06/02 00:56:01;;;;;;;;;;;;;;;18.95;66.67;101001.28;5013063;28;1148;-45
2021/06/02 00:58:28;;;;;;;;;;;;;;;18.94;67.77;100994.22;5012161;28;2059;-46
2021/06/02 01:00:55;;;;;;;;;;;;;;;18.97;66.73;100993.94;5010279;28;1967;-46
2021/06/02 01:03:22;;;;;;;;;;;;;;;18.94;66.35;100994.22;5014969;28;1725;-46
2021/06/02 01:05:48;;;;;;;;;;;;;;;18.95;67.75;101000.44;5013240;28;1496;-47
2021/06/02 01:08:19;;;;;;;;;;;;;;;18.95;66.70;101000.44;5015669;28;1783;-46
2021/06/02 01:10:45;;;;;;;;;;;;;;;18.93;67.14;100992.50;5009603;28;997;-45
2021/06/02 01:13:14;;;;;;;;;;;;;;;18.94;67.24;100988.88;5016111;28;1780;-46
2021/06/02 01:15:40;;;;;;;;;;;;;;;18.93;67.19;100987.16;5015232;28;1617;-46
2021/06/02 01:18:08;;;;;;;;;;;;;;;18.94;67.00;100996.91;5014440;28;1776;-46
2021/06/02 01:20:36;;;;;;;;;;;;;;;18.91;66.99;100988.28;5015143;28;1991;-46
2021/06/02 01:23:04;;;;;;;;;;;;;;;18.92;66.17;100996.19;5015727;28;1626;-46
2021/06/02 01:25:30;;;;;;;;;;;;;;;18.93;67.19;100995.19;5014104;28;1933;-46
2021/06/02 01:27:56;;;;;;;;;;;;;;;18.91;66.26;100990.94;5006422;28;1526;-46
2021/06/02 01:30:23;;;;;;;;;;;;;;;18.91;67.20;100990.94;5014882;28;1709;-45
2021/06/02 01:33:03;;;;;;;;;;;;;;;18.92;67.75;100990.81;5014009;28;1650;-46
2021/06/02 01:35:53;;;;;;;;;;;;;;;18.91;67.09;100991.78;5007054;28;1779;-46
2021/06/02 01:38:40;;;;;;;;;;;;;;;18.90;65.72;100986.56;5005954;28;1606;-46
2021/06/02 01:41:24;;;;;;;;;;;;;;;18.90;66.89;101000.81;5012027;28;1906;-46
2021/06/02 01:44:05;;;;;;;;;;;;;;;18.90;65.99;100997.28;5014348;28;2287;-46
2021/06/02 01:46:52;;;;;;;;;;;;;;;18.92;66.79;100998.88;4981281;28;1880;-46
2021/06/02 01:49:29;;;;;;;;;;;;;;;18.88;66.32;101003.63;5015608;28;1209;-45
2021/06/02 01:52:11;;;;;;;;;;;;;;;18.94;67.34;101010.31;5012649;28;1280;-45
2021/06/02 01:55:00;;;;;;;;;;;;;;;18.89;67.10;101001.78;5015040;28;1293;-45
2021/06/02 01:57:42;;;;;;;;;;;;;;;18.90;66.29;100994.59;5014894;28;1945;-46
2021/06/02 02:03:15;;;;;;;;;;;;;;;18.90;67.44;100995.47;4302275;26;2154;-81
2021/06/02 02:05:54;;;;;;;;;;;;;;;18.89;66.42;100988.38;5061094;28;1644;-82
2021/06/02 02:08:28;;;;;;;;;;;;;;;18.90;66.25;100994.59;5069801;28;1420;-83
2021/06/02 02:10:59;;;;;;;;;;;;;;;18.91;65.75;101001.66;5060097;28;1670;-80
2021/06/02 02:13:51;;;;;;;;;;;;;;;18.88;67.05;101000.94;5059389;28;1722;-81
2021/06/02 02:16:25;;;;;;;;;;;;;;;18.87;66.74;101001.06;5058280;28;1366;-82
2021/06/02 02:19:02;;;;;;;;;;;;;;;18.89;66.66;100996.44;5055907;28;1434;-81
2021/06/02 02:21:37;;;;;;;;;;;;;;;18.86;66.38;101007.38;5047592;28;1973;-84
2021/06/02 02:24:08;;;;;;;;;;;;;;;18.89;65.75;101012.50;5050594;28;1459;-81
2021/06/02 02:26:45;;;;;;;;;;;;;;;18.88;66.39;101008.97;5053500;28;1475;-82
2021/06/02 02:29:24;;;;;;;;;;;;;;;18.89;66.25;101009.81;5050299;28;1348;-83
2021/06/02 02:32:11;;;;;;;;;;;;;;;18.88;66.52;101000.09;5049933;28;1547;-81
2021/06/02 02:34:45;;;;;;;;;;;;;;;18.88;66.48;101005.47;5046912;28;1526;-80
2021/06/02 02:37:19;;;;;;;;;;;;;;;18.87;66.07;101018.00;5049420;28;1484;-82
2021/06/02 02:39:52;;;;;;;;;;;;;;;18.88;66.47;101017.03;5047605;28;1510;-82
2021/06/02 02:42:22;;;;;;;;;;;;;;;18.86;66.96;101018.97;5042905;28;1975;-80
2021/06/02 02:44:54;;;;;;;;;;;;;;;18.88;66.65;101021.53;5041448;28;1468;-80
2021/06/02 02:47:27;;;;;;;;;;;;;;;18.85;66.03;101021.78;5049335;28;1560;-81
2021/06/02 02:50:02;;;;;;;;;;;;;;;18.87;65.83;101020.66;5041255;28;1495;-81
2021/06/02 02:52:45;;;;;;;;;;;;;;;18.86;66.59;101010.94;5039023;28;1610;-80
2021/06/02 02:55:13;;;;;;;;;;;;;;;18.87;66.26;101025.19;5043714;28;1365;-81
2021/06/02 02:57:46;;;;;;;;;;;;;;;18.88;67.03;101027.75;5049996;28;1446;-83
2021/06/02 03:00:15;;;;;;;;;;;;;;;18.85;66.13;101022.63;5038771;28;1469;-82
2021/06/02 03:02:43;;;;;;;;;;;;;;;18.84;66.76;101026.31;5031047;28;1906;-83
2021/06/02 03:05:13;;;;;;;;;;;;;;;18.84;66.15;101026.31;5033904;28;1421;-80
2021/06/02 03:07:44;;;;;;;;;;;;;;;18.85;65.60;101021.78;5031861;28;1544;-81
2021/06/02 03:10:13;;;;;;;;;;;;;;;18.85;65.81;101032.50;5033065;28;1356;-79
2021/06/02 03:12:47;;;;;;;;;;;;;;;18.85;66.70;101029.81;5031964;28;1542;-82
2021/06/02 03:15:32;;;;;;;;;;;;;;;18.85;66.21;101033.34;5032499;28;1666;-83
2021/06/02 03:18:02;;;;;;;;;;;;;;;18.84;67.00;101041.50;5034634;28;1434;-81
2021/06/02 03:20:33;;;;;;;;;;;;;;;18.85;66.55;101037.88;5035237;28;1542;-82
2021/06/02 03:23:23;;;;;;;;;;;;;;;18.83;66.80;101048.69;5035174;28;1972;-80
2021/06/02 03:25:58;;;;;;;;;;;;;;;18.85;67.15;101043.22;5031727;28;1429;-83
2021/06/02 03:28:31;;;;;;;;;;;;;;;18.85;66.94;101027.13;5029057;28;1714;-83
2021/06/02 03:31:03;;;;;;;;;;;;;;;18.86;66.66;101047.59;5039404;28;1616;-81
2021/06/02 03:33:37;;;;;;;;;;;;;;;18.84;66.52;101041.50;5042887;28;1441;-80
2021/06/02 03:49:22;;;;;;;;;;;;;;;18.85;66.68;101057.47;4820185;27;8267688;-47
2021/06/02 03:51:58;;;;;;;;;;;;;;;18.86;66.76;101066.34;5105181;28;1490;-47
2021/06/02 03:54:51;;;;;;;;;;;;;;;18.86;66.32;101060.97;5106918;28;1799;-47
2021/06/02 03:57:30;;;;;;;;;;;;;;;18.86;66.67;101066.34;5103980;28;1990;-47
2021/06/02 04:00:18;;;;;;;;;;;;;;;18.88;67.47;101069.78;5106292;28;1555;-47
2021/06/02 04:03:06;;;;;;;;;;;;;;;18.93;67.48;101062.19;5101389;28;1732;-49
2021/06/02 04:05:51;;;;;;;;;;;;;;;18.97;67.34;101066.31;5113462;28;1800;-47
2021/06/02 04:08:35;;;;;;;;;;;;;;;18.95;66.85;101064.75;5115639;28;1644;-47
2021/06/02 04:11:23;;;;;;;;;;;;;;;18.99;67.15;101077.75;5106845;28;3002;-47
2021/06/02 04:14:12;;;;;;;;;;;;;;;18.91;67.56;101072.19;5105897;28;1435;-48
2021/06/02 04:16:40;;;;;;;;;;;;;;;18.93;67.58;101072.91;5104531;28;1902;-48
2021/06/02 04:19:07;;;;;;;;;;;;;;;18.96;67.26;101066.44;5109170;28;1437;-49
2021/06/02 04:21:35;;;;;;;;;;;;;;;18.99;67.24;101072.38;5105359;28;1788;-47
2021/06/02 04:24:17;;;;;;;;;;;;;;;18.88;67.62;101069.78;5108449;28;1633;-47
2021/06/02 04:26:52;;;;;;;;;;;;;;;18.85;67.43;101081.56;5107357;28;1657;-47
2021/06/02 04:29:21;;;;;;;;;;;;;;;18.82;66.90;101086.31;5104864;28;1733;-47
2021/06/02 04:31:52;;;;;;;;;;;;;;;18.81;67.27;101087.31;5106392;28;2033;-48
2021/06/02 04:34:24;;;;;;;;;;;;;;;18.73;66.25;101087.06;5107389;28;1774;-47
2021/06/02 04:36:51;;;;;;;;;;;;;;;18.65;65.91;101079.66;5108769;28;1988;-46
2021/06/02 04:39:18;;;;;;;;;;;;;;;18.58;66.15;101084.69;5107039;28;2004;-47
2021/06/02 04:41:51;;;;;;;;;;;;;;;18.62;66.20;101091.50;5103493;28;1659;-47
2021/06/02 04:44:17;;;;;;;;;;;;;;;18.60;65.42;101100.59;5105344;28;1728;-47
2021/06/02 04:46:46;;;;;;;;;;;;;;;18.60;66.72;101104.16;5095664;28;1649;-47
2021/06/02 04:49:12;;;;;;;;;;;;;;;18.58;66.00;101097.19;5116411;28;1557;-47
2021/06/02 04:52:01;;;;;;;;;;;;;;;18.57;65.97;101099.03;5111354;28;2062;-47
2021/06/02 04:54:45;;;;;;;;;;;;;;;18.54;65.95;101101.94;5107791;27;1587;-47
2021/06/02 04:57:36;;;;;;;;;;;;;;;18.55;66.13;101100.13;5112515;27;1909;-47
2021/06/02 05:00:11;;;;;;;;;;;;;;;18.54;65.05;101107.31;5112042;28;1918;-47
2021/06/02 05:03:00;;;;;;;;;;;;;;;18.52;65.26;101106.56;5109667;28;1523;-47
2021/06/02 05:05:56;;;;;;;;;;;;;;;18.52;65.11;101109.25;5104437;28;1551;-47
2021/06/02 05:08:40;;;;;;;;;;;;;;;18.53;65.23;101112.81;5104836;28;1792;-46
2021/06/02 05:11:28;;;;;;;;;;;;;;;18.56;65.35;101117.91;5108081;28;1395;-47
2021/06/02 05:14:16;;;;;;;;;;;;;;;18.64;64.72;101126.16;5108395;28;1790;-46
2021/06/02 05:17:02;;;;;;;;;;;;;;;18.63;66.19;101125.31;5107428;28;1995;-47
2021/06/02 05:19:56;;;;;;;;;;;;;;;18.59;64.81;101123.88;5108129;28;1697;-46
2021/06/02 05:22:43;;;;;;;;;;;;;;;18.53;64.65;101135.06;5110870;28;1845;-46
2021/06/02 05:25:33;;;;;;;;;;;;;;;18.53;64.79;101129.72;5084407;28;1679;-47
2021/06/02 05:28:31;;;;;;;;;;;;;;;18.49;64.87;101136.31;5080012;28;1580;-47
2021/06/02 05:31:12;;;;;;;;;;;;;;;18.46;64.63;101134.72;5108674;28;1570;-47
2021/06/02 05:34:04;;;;;;;;;;;;;;;18.51;65.46;101146.91;5094155;28;1650;-47
2021/06/02 05:36:48;;;;;;;;;;;;;;;18.48;64.30;101153.31;5108264;28;1906;-47
2021/06/02 05:39:33;;;;;;;;;;;;;;;18.47;64.48;101154.31;5112133;28;1593;-46
2021/06/02 05:42:13;;;;;;;;;;;;;;;18.48;64.44;101156.00;5108125;28;1653;-47
2021/06/02 05:44:59;;;;;;;;;;;;;;;18.42;64.57;101167.22;5110132;28;1424;-47
2021/06/02 05:47:48;;;;;;;;;;;;;;;18.37;64.83;101162.22;5108343;28;1812;-46
2021/06/02 05:50:30;;;;;;;;;;;;;;;18.38;64.61;101176.47;5090037;28;1884;-47
2021/06/02 05:53:17;;;;;;;;;;;;;;;18.35;64.48;101171.38;5111105;28;1931;-47
2021/06/02 05:55:58;;;;;;;;;;;;;;;18.33;64.39;101170.63;5107241;28;1500;-46
2021/06/02 05:58:52;;;;;;;;;;;;;;;18.29;64.45;101162.84;5100142;28;1968;-46
2021/06/02 06:01:42;;;;;;;;;;;;;;;18.28;64.80;101179.88;5056573;28;1893;-46
2021/06/02 06:04:28;;;;;;;;;;;;;;;18.26;64.69;101171.13;5098369;28;1832;-46
2021/06/02 06:07:07;;;;;;;;;;;;;;;18.29;64.54;101180.72;5103490;28;1959;-48
2021/06/02 06:09:52;;;;;;;;;;;;;;;18.27;64.17;101162.09;5105097;28;1771;-46
2021/06/02 06:12:40;;;;;;;;;;;;;;;18.27;64.32;101175.47;5107985;28;1281;-46
2021/06/02 06:15:29;;;;;;;;;;;;;;;18.29;64.22;101175.38;5113845;28;1076;-47
2021/06/02 06:18:09;;;;;;;;;;;;;;;18.31;64.64;101173.44;5111438;28;1981;-47
2021/06/02 06:20:47;;;;;;;;;;;;;;;18.25;64.20;101180.09;5108473;28;1477;-46
2021/06/02 06:23:30;;;;;;;;;;;;;;;18.27;64.18;101183.50;5111138;27;1525;-46
2021/06/02 06:25:59;;;;;;;;;;;;;;;18.27;64.05;101183.50;5100343;28;1582;-46
2021/06/02 06:28:35;;;;;;;;;;;;;;;18.32;64.09;101193.00;5100122;28;1681;-46
2021/06/02 06:31:02;;;;;;;;;;;;;;;18.33;64.06;101198.25;5099982;28;1798;-46
2021/06/02 06:33:43;;;;;;;;;;;;;;;18.28;64.02;101185.25;5099602;28;1763;-46
2021/06/02 06:36:10;;;;;;;;;;;;;;;18.28;63.88;101184.38;5108746;28;1602;-46
2021/06/02 06:38:49;;;;;;;;;;;;;;;18.27;64.07;101182.69;5104209;28;2540;-47
2021/06/02 06:41:18;;;;;;;;;;;;;;;18.29;64.07;101196.78;5105921;28;1604;-46
2021/06/02 06:43:46;;;;;;;;;;;;;;;18.27;64.48;101191.53;5109738;28;1707;-47
2021/06/02 06:46:13;;;;;;;;;;;;;;;18.26;64.05;101192.53;5110798;28;1518;-47
2021/06/02 06:48:50;;;;;;;;;;;;;;;18.25;64.51;101190.81;5108167;28;1507;-46
2021/06/02 06:51:19;;;;;;;;;;;;;;;18.26;64.48;101188.97;5098639;28;1981;-47
2021/06/02 06:53:47;;;;;;;;;;;;;;;18.29;64.28;101191.44;5109137;28;1829;-46
2021/06/02 06:56:18;;;;;;;;;;;;;;;18.42;64.57;101191.31;5102637;28;1700;-46
2021/06/02 06:58:47;;;;;;;;;;;;;;;18.51;65.29;101179.03;5110123;28;1906;-46
2021/06/02 07:01:16;;;;;;;;;;;;;;;18.65;65.71;101184.97;5107555;28;1674;-47
2021/06/02 07:03:43;;;;;;;;;;;;;;;18.72;65.59;101181.81;5107152;28;1655;-46
2021/06/02 07:06:11;;;;;;;;;;;;;;;18.73;65.38;101183.53;5112725;28;1240;-46
2021/06/02 07:08:38;;;;;;;;;;;;;;;18.66;65.51;101169.75;5105429;28;2008;-46
2021/06/02 07:11:07;;;;;;;;;;;;;;;18.71;65.18;101185.47;5106046;28;1776;-48
2021/06/02 07:13:37;;;;;;;;;;;;;;;18.72;65.66;101176.44;5107569;28;1561;-47
2021/06/02 07:16:04;;;;;;;;;;;;;;;18.67;65.61;101164.28;5101430;28;1831;-46
2021/06/02 07:18:31;;;;;;;;;;;;;;;18.72;65.80;101181.81;5102205;28;1987;-46
2021/06/02 07:21:07;;;;;;;;;;;;;;;18.73;65.59;101162.09;5103706;28;2035;-46
2021/06/02 07:23:36;;;;;;;;;;;;;;;18.74;65.44;101158.41;5098261;28;1598;-46
2021/06/02 07:26:02;;;;;;;;;;;;;;;18.75;66.03;101166.34;5103254;28;1632;-46
2021/06/02 07:28:36;;;;;;;;;;;;;;;18.74;65.80;101161.97;5101085;28;1423;-50
2021/06/02 07:31:02;;;;;;;;;;;;;;;18.78;65.54;101170.59;5109935;28;1722;-47
2021/06/02 07:33:30;;;;;;;;;;;;;;;18.77;65.51;101163.53;5108943;28;1652;-46
2021/06/02 07:35:59;;;;;;;;;;;;;;;18.81;65.50;101170.38;5107400;28;1822;-46
2021/06/02 07:38:25;;;;;;;;;;;;;;;18.83;65.62;101176.47;5097190;28;1993;-47
2021/06/02 07:40:53;;;;;;;;;;;;;;;18.86;65.43;101179.75;5108036;28;1664;-47
2021/06/02 07:43:20;;;;;;;;;;;;;;;18.86;65.60;101170.84;5102843;28;1459;-47
2021/06/02 07:45:48;;;;;;;;;;;;;;;18.89;65.40;101167.94;5101908;28;1591;-46
2021/06/02 07:48:28;;;;;;;;;;;;;;;18.91;65.87;101165.13;5102851;28;1539;-46
2021/06/02 07:50:57;;;;;;;;;;;;;;;18.92;65.48;101172.19;5106514;28;1603;-46
2021/06/02 07:53:23;;;;;;;;;;;;;;;18.93;65.48;101163.19;5104947;28;1470;-47
2021/06/02 07:55:50;;;;;;;;;;;;;;;18.97;65.51;101178.03;5107469;28;1920;-47
2021/06/02 07:58:16;;;;;;;;;;;;;;;18.95;65.63;101183.50;5107200;28;1978;-46
2021/06/02 08:00:51;;;;;;;;;;;;;;;18.97;65.49;101168.16;5105582;28;1498;-46
2021/06/02 08:03:24;;;;;;;;;;;;;;;18.98;65.68;101175.22;5108168;28;1580;-47
2021/06/02 08:05:50;;;;;;;;;;;;;;;18.98;65.32;101161.81;5104664;28;1642;-47
2021/06/02 08:08:17;;;;;;;;;;;;;;;19.01;65.88;101166.06;5105115;28;1498;-46
2021/06/02 08:10:43;;;;;;;;;;;;;;;19.03;65.29;101175.69;5109153;28;1673;-46
2021/06/02 08:13:09;;;;;;;;;;;;;;;19.02;65.40;101171.31;5107727;28;1587;-47
2021/06/02 08:15:38;;;;;;;;;;;;;;;19.02;65.46;101171.31;5108773;28;1593;-47
2021/06/02 08:18:05;;;;;;;;;;;;;;;19.03;65.58;101167.66;5106327;28;1905;-47
2021/06/02 08:20:33;;;;;;;;;;;;;;;19.02;65.44;101162.41;5104751;28;1336;-47
2021/06/02 08:22:59;;;;;;;;;;;;;;;19.01;65.71;101164.25;5109355;28;1568;-46
2021/06/02 08:25:25;;;;;;;;;;;;;;;19.02;65.74;101174.00;5103553;28;1601;-46
2021/06/02 08:27:53;;;;;;;;;;;;;;;19.03;65.57;101180.19;5101653;28;1557;-46
2021/06/02 08:30:20;;;;;;;;;;;;;;;18.97;65.50;101184.22;5104659;27;1595;-46
2021/06/02 08:32:46;;;;;;;;;;;;;;;18.94;65.25;101179.13;5107770;28;1511;-47
2021/06/02 08:35:15;;;;;;;;;;;;;;;18.94;65.33;101178.25;5112114;28;1580;-46
2021/06/02 08:37:43;;;;;;;;;;;;;;;18.95;65.43;101182.66;5111154;28;1969;-46
2021/06/02 08:40:10;;;;;;;;;;;;;;;18.93;65.47;101177.41;5112752;28;1595;-47
2021/06/02 08:42:40;;;;;;;;;;;;;;;18.93;65.46;101164.03;5111169;27;1494;-48
2021/06/02 08:45:07;;;;;;;;;;;;;;;18.96;65.70;101168.28;5114183;28;1312;-46
2021/06/02 08:47:37;;;;;;;;;;;;;;;19.03;65.43;101178.38;5111933;28;1697;-47
2021/06/02 08:50:10;;;;;;;;;;;;;;;19.05;65.61;101168.38;5108095;28;1632;-46
2021/06/02 08:52:38;;;;;;;;;;;;;;;19.16;66.01;101172.00;5113118;28;1783;-46
2021/06/02 08:55:13;;;;;;;;;;;;;;;19.16;66.21;101161.25;5113381;28;1618;-47
2021/06/02 08:57:39;;;;;;;;;;;;;;;19.20;65.99;101168.94;5108091;28;1905;-47
2021/06/02 09:00:07;;;;;;;;;;;;;;;19.19;66.19;101156.50;5108880;28;1634;-46
2021/06/02 09:02:33;;;;;;;;;;;;;;;19.19;66.42;101147.63;5102662;28;1829;-46
2021/06/02 09:04:59;;;;;;;;;;;;;;;19.20;66.46;101150.19;5103523;28;1529;-46
2021/06/02 09:07:25;;;;;;;;;;;;;;;19.20;66.66;101138.59;5110494;28;1673;-46
2021/06/02 09:09:51;;;;;;;;;;;;;;;19.21;67.39;101145.66;5105724;28;1385;-47
2021/06/02 09:12:30;;;;;;;;;;;;;;;19.21;66.95;101146.50;5102667;28;1270;-47
2021/06/02 09:15:07;;;;;;;;;;;;;;;19.19;66.84;101152.97;5102152;28;1034;-46
2021/06/02 09:17:46;;;;;;;;;;;;;;;19.21;66.93;101146.50;5107591;28;1902;-46
2021/06/02 09:20:15;;;;;;;;;;;;;;;19.23;67.29;101155.28;5108069;28;2177;-47
2021/06/02 09:22:42;;;;;;;;;;;;;;;19.25;67.13;101144.44;5113302;28;1603;-48
2021/06/02 09:25:10;;;;;;;;;;;;;;;19.25;67.14;101141.75;5112068;27;1539;-47
2021/06/02 09:27:49;;;;;;;;;;;;;;;19.23;67.20;101149.06;5108284;28;1869;-47
2021/06/02 09:33:09;;;;;;;;;;;;;;;19.26;67.34;101148.81;5102096;28;1595;-46
2021/06/02 09:35:38;;;;;;;;;;;;;;;19.28;67.18;101146.88;5110183;28;1777;-47
2021/06/02 09:38:13;;;;;;;;;;;;;;;19.30;67.55;101150.28;5108145;28;1980;-46
2021/06/02 09:40:42;;;;;;;;;;;;;;;19.32;67.54;101148.31;5111232;28;1814;-45
2021/06/02 09:43:13;;;;;;;;;;;;;;;19.27;68.04;101143.31;5104744;28;1594;-47
2021/06/02 09:45:40;;;;;;;;;;;;;;;19.32;68.08;101142.06;5104515;28;1811;-46
2021/06/02 09:48:06;;;;;;;;;;;;;;;19.30;68.02;101150.28;5096345;27;1548;-46
2021/06/02 09:50:36;;;;;;;;;;;;;;;19.31;68.15;101148.44;5112833;27;1663;-46
2021/06/02 09:53:05;;;;;;;;;;;;;;;19.30;67.94;101155.63;5106590;28;1858;-46
2021/06/02 09:55:39;;;;;;;;;;;;;;;19.29;69.03;101148.56;5109424;28;1637;-47
2021/06/02 09:58:14;;;;;;;;;;;;;;;19.28;69.32;101145.03;5108768;27;1909;-46
2021/06/02 10:00:47;;;;;;;;;;;;;;;19.26;69.34;101143.47;5108323;27;1802;-46
2021/06/02 10:03:28;;;;;;;;;;;;;;;19.22;69.35;101142.88;5112363;28;1599;-46
2021/06/02 10:05:54;;;;;;;;;;;;;;;19.20;68.78;101136.78;5110678;28;1094;-45
2021/06/02 10:08:29;;;;;;;;;;;;;;;19.23;68.92;101130.31;5113235;27;1374;-46
2021/06/02 10:10:57;;;;;;;;;;;;;;;19.26;68.66;101138.09;5110044;28;1791;-46
2021/06/02 10:13:36;;;;;;;;;;;;;;;19.27;68.98;101150.50;5109765;28;1402;-46
2021/06/02 10:16:02;;;;;;;;;;;;;;;19.22;69.25;101142.88;5110408;28;1610;-46
2021/06/02 10:18:32;;;;;;;;;;;;;;;19.22;69.75;101153.59;5108612;28;1988;-46
2021/06/02 10:21:00;;;;;;;;;;;;;;;19.19;69.31;101142.25;5112313;28;1482;-46
2021/06/02 10:23:28;;;;;;;;;;;;;;;19.23;69.85;101141.03;5105020;28;1590;-46
2021/06/02 10:25:54;;;;;;;;;;;;;;;19.21;69.41;101142.97;5107863;28;1650;-46
2021/06/02 10:28:30;;;;;;;;;;;;;;;19.19;69.12;101131.53;5107734;27;1643;-46
2021/06/02 10:31:05;;;;;;;;;;;;;;;19.25;69.51;101139.06;5107903;28;1297;-46
2021/06/02 10:33:40;;;;;;;;;;;;;;;19.29;69.57;101137.81;5105685;28;1580;-47
2021/06/02 10:36:07;;;;;;;;;;;;;;;19.23;69.18;101144.53;5100571;28;1183;-46
2021/06/02 10:38:42;;;;;;;;;;;;;;;19.21;69.17;101141.16;5098546;28;2025;-46
2021/06/02 10:41:29;;;;;;;;;;;;;;;19.17;69.60;101134.34;5107165;28;1480;-47
2021/06/02 10:44:05;;;;;;;;;;;;;;;19.15;69.56;101140.81;5106695;27;1835;-47
2021/06/02 10:46:38;;;;;;;;;;;;;;;19.17;69.75;101144.22;5109895;27;1652;-46
2021/06/02 10:49:15;;;;;;;;;;;;;;;19.12;69.20;101144.59;5108208;28;1935;-46
2021/06/02 10:51:47;;;;;;;;;;;;;;;19.16;69.48;101143.38;5112944;28;1868;-47
2021/06/02 10:54:21;;;;;;;;;;;;;;;19.13;69.69;101140.94;5108812;28;1753;-46
2021/06/02 10:57:06;;;;;;;;;;;;;;;19.15;69.38;101146.19;5100318;28;1795;-47
2021/06/02 10:59:36;;;;;;;;;;;;;;;19.15;69.61;101146.19;5102347;28;2039;-47
2021/06/02 11:02:10;;;;;;;;;;;;;;;19.14;69.50;101147.13;5106415;28;1777;-47
2021/06/02 11:04:40;;;;;;;;;;;;;;;19.12;69.47;101151.78;5106179;28;1599;-46
2021/06/02 11:10:06;;;;;;;;;;;;;;;19.12;69.14;101152.66;5102449;28;2273;-47
2021/06/02 11:12:47;;;;;;;;;;;;;;;19.09;69.22;101147.53;5102776;28;1733;-47
2021/06/02 11:15:23;;;;;;;;;;;;;;;19.10;69.06;101157.28;5095785;28;1879;-47
2021/06/02 11:18:14;;;;;;;;;;;;;;;19.09;69.04;101144.84;5107312;28;1909;-46
2021/06/02 11:20:47;;;;;;;;;;;;;;;19.08;69.45;101146.69;5107196;28;1050;-47
2021/06/02 11:23:16;;;;;;;;;;;;;;;19.12;69.58;101158.00;5107779;27;2091;-46
2021/06/02 11:25:43;;;;;;;;;;;;;;;19.08;69.24;101157.41;5105574;28;1595;-46
2021/06/02 11:28:34;;;;;;;;;;;;;;;19.11;69.28;101156.28;5110147;28;1814;-47
2021/06/02 11:31:17;;;;;;;;;;;;;;;19.08;69.52;101152.03;5103838;28;2097;-47
2021/06/02 11:33:45;;;;;;;;;;;;;;;19.06;68.36;101159.38;5108779;28;1895;-47
2021/06/02 11:36:14;;;;;;;;;;;;;;;19.12;69.22;101157.13;5109154;28;1439;-46
2021/06/02 11:38:42;;;;;;;;;;;;;;;19.12;68.03;101151.78;5110453;28;1987;-47
2021/06/02 11:41:14;;;;;;;;;;;;;;;19.16;67.73;101158.59;5103239;28;1611;-47
2021/06/02 11:43:44;;;;;;;;;;;;;;;19.16;68.93;101159.47;5108244;28;2047;-46
2021/06/02 11:46:10;;;;;;;;;;;;;;;19.16;68.53;101155.91;5099656;28;1891;-48
2021/06/02 11:48:38;;;;;;;;;;;;;;;19.13;68.62;101153.50;5109503;28;1582;-47
2021/06/02 11:51:08;;;;;;;;;;;;;;;19.14;68.30;101153.38;5111584;28;1633;-47
2021/06/02 11:53:56;;;;;;;;;;;;;;;19.16;68.44;101158.59;5100861;28;1440;-46
2021/06/02 11:56:25;;;;;;;;;;;;;;;19.12;68.36;101157.13;5104265;28;1649;-48
2021/06/02 11:58:51;;;;;;;;;;;;;;;19.17;68.40;101152.25;5109963;28;1910;-46
2021/06/02 12:01:20;;;;;;;;;;;;;;;19.15;68.33;101146.19;5110442;28;1820;-47
2021/06/02 12:03:54;;;;;;;;;;;;;;;19.17;68.21;101154.94;5113546;27;1454;-46
2021/06/02 12:06:27;;;;;;;;;;;;;;;19.14;67.49;101144.47;5111976;28;1369;-46
2021/06/02 12:08:59;;;;;;;;;;;;;;;19.12;68.53;101141.06;5113469;27;1633;-46
2021/06/02 12:11:40;;;;;;;;;;;;;;;19.16;68.45;101147.88;5110219;27;1793;-46
2021/06/02 12:14:19;;;;;;;;;;;;;;;19.12;68.52;101139.25;5105808;28;1775;-47
2021/06/02 12:16:46;;;;;;;;;;;;;;;19.13;68.23;101140.09;5107055;27;1641;-48
2021/06/02 12:19:16;;;;;;;;;;;;;;;19.07;68.46;101149.50;5110809;28;1979;-47
2021/06/02 12:21:43;;;;;;;;;;;;;;;19.02;68.14;101149.88;5116887;28;1993;-46
2021/06/02 12:24:24;;;;;;;;;;;;;;;19.12;68.36;101143.72;5108362;27;1601;-47
2021/06/02 12:26:54;;;;;;;;;;;;;;;19.13;67.97;101137.41;5113902;28;1769;-46
2021/06/02 12:29:29;;;;;;;;;;;;;;;19.15;67.77;101140.81;5111929;28;1616;-46
2021/06/02 12:32:00;;;;;;;;;;;;;;;19.13;68.01;101134.72;5111300;28;1701;-47
2021/06/02 12:34:39;;;;;;;;;;;;;;;19.11;68.84;101132.16;5110684;28;1730;-47
2021/06/02 12:37:07;;;;;;;;;;;;;;;19.11;69.21;101144.72;5110641;28;1553;-47
2021/06/02 12:39:38;;;;;;;;;;;;;;;19.12;69.44;101151.78;5107646;27;1980;-46
2021/06/02 12:42:05;;;;;;;;;;;;;;;19.17;68.94;101141.53;5112782;28;1522;-47
2021/06/02 12:44:32;;;;;;;;;;;;;;;19.22;69.02;101136.66;5111273;28;1584;-47
2021/06/02 12:46:59;;;;;;;;;;;;;;;19.25;69.03;101147.09;5113078;27;1535;-46
2021/06/02 12:49:34;;;;;;;;;;;;;;;19.24;68.46;101137.38;5107020;28;1748;-46
2021/06/02 12:52:07;;;;;;;;;;;;;;;19.22;68.61;101142.88;5115637;27;1838;-46
2021/06/02 12:54:35;;;;;;;;;;;;;;;19.23;69.25;101127.63;5112928;28;1761;-47
2021/06/02 12:57:11;;;;;;;;;;;;;;;19.20;69.18;101133.22;5113537;27;1361;-47
2021/06/02 12:59:39;;;;;;;;;;;;;;;19.18;69.80;101143.22;5110252;28;2010;-47
2021/06/02 13:02:07;;;;;;;;;;;;;;;19.17;69.45;101149.56;5107569;27;1564;-46
2021/06/02 13:04:41;;;;;;;;;;;;;;;19.19;68.62;101142.25;5110504;28;1710;-46
2021/06/02 13:07:07;;;;;;;;;;;;;;;19.20;69.72;101146.63;5115465;28;1279;-46
2021/06/02 13:09:35;;;;;;;;;;;;;;;19.16;70.24;101147.88;5110918;28;1629;-46
2021/06/02 13:12:18;;;;;;;;;;;;;;;19.14;69.46;101150.69;5111449;28;1549;-46
2021/06/02 13:14:44;;;;;;;;;;;;;;;19.17;69.22;101152.25;5111734;28;1796;-46
2021/06/02 13:17:10;;;;;;;;;;;;;;;19.17;69.55;101153.09;5110782;27;1601;-46
2021/06/02 13:19:37;;;;;;;;;;;;;;;19.20;69.29;101154.66;5111878;28;1950;-47
2021/06/02 13:22:03;;;;;;;;;;;;;;;19.17;68.91;101153.09;5114705;28;1311;-47
2021/06/02 13:24:36;;;;;;;;;;;;;;;19.15;68.96;101151.53;5106535;28;1815;-46
2021/06/02 13:27:03;;;;;;;;;;;;;;;19.15;68.95;101148.84;5108741;27;1961;-47
2021/06/02 13:29:31;;;;;;;;;;;;;;;19.19;69.65;101158.34;5106304;28;1777;-47
2021/06/02 13:31:58;;;;;;;;;;;;;;;19.19;69.42;101153.81;5098155;28;1704;-46
2021/06/02 13:34:33;;;;;;;;;;;;;;;19.17;69.51;101138.84;5110783;28;1554;-46
2021/06/02 13:37:16;;;;;;;;;;;;;;;19.14;69.07;101133.72;5113903;28;1319;-46
2021/06/02 13:39:59;;;;;;;;;;;;;;;19.15;68.76;101144.34;5106927;28;1906;-46
2021/06/02 13:42:27;;;;;;;;;;;;;;;19.16;68.75;101147.88;5110681;28;1824;-46